createdAt,value
2022-12-06T00:01:36.176Z,2.20
2022-12-06T00:04:03.825Z,2.22
2022-12-06T00:06:31.814Z,2.22
2022-12-06T00:08:59.449Z,2.23
2022-12-06T00:11:27.123Z,2.23
2022-12-06T00:13:54.706Z,2.23
2022-12-06T00:16:22.926Z,2.24
2022-12-06T00:18:50.962Z,2.24
2022-12-06T00:21:18.580Z,2.24
2022-12-06T00:23:46.210Z,2.24
2022-12-06T00:26:13.860Z,2.25
2022-12-06T00:28:41.874Z,2.26
2022-12-06T00:31:10.164Z,2.26
2022-12-06T00:33:37.777Z,2.27
2022-12-06T00:36:05.345Z,2.27
2022-12-06T00:38:33.109Z,2.28
2022-12-06T00:41:01.958Z,2.28
2022-12-06T00:43:29.904Z,2.29
2022-12-06T00:45:57.581Z,2.28
2022-12-06T00:48:25.973Z,2.29
2022-12-06T00:50:53.538Z,2.30
2022-12-06T00:53:24.240Z,2.30
2022-12-06T00:55:52.280Z,2.32
2022-12-06T00:58:20.035Z,2.33
2022-12-06T01:00:47.731Z,2.33
2022-12-06T01:03:15.457Z,2.34
2022-12-06T01:05:44.365Z,2.35
2022-12-06T01:08:12.404Z,2.35
2022-12-06T01:10:40.079Z,2.35
2022-12-06T01:13:07.627Z,2.36
2022-12-06T01:15:35.494Z,2.35
2022-12-06T01:18:03.194Z,2.36
2022-12-06T01:20:31.204Z,2.37
2022-12-06T01:22:58.770Z,2.36
2022-12-06T01:25:27.376Z,2.37
2022-12-06T01:27:56.234Z,2.37
2022-12-06T01:30:24.848Z,2.37
2022-12-06T01:32:52.849Z,2.38
2022-12-06T01:35:20.398Z,2.38
2022-12-06T01:37:47.999Z,2.38
2022-12-06T01:40:15.696Z,2.38
2022-12-06T01:42:43.287Z,2.39
2022-12-06T01:45:11.163Z,2.39
2022-12-06T01:47:38.775Z,2.40
2022-12-06T01:50:06.322Z,2.40
2022-12-06T01:52:33.875Z,2.41
2022-12-06T01:55:01.509Z,2.40
2022-12-06T01:57:29.565Z,2.40
2022-12-06T01:59:57.357Z,2.40
2022-12-06T02:02:25.274Z,2.39
2022-12-06T02:04:52.904Z,2.40
2022-12-06T02:07:21.648Z,2.39
2022-12-06T02:09:49.606Z,2.39
2022-12-06T02:12:17.175Z,2.39
2022-12-06T02:14:44.752Z,2.39
2022-12-06T02:17:12.389Z,2.39
2022-12-06T02:19:42.971Z,2.39
2022-12-06T02:22:10.898Z,2.39
2022-12-06T02:24:38.511Z,2.39
2022-12-06T02:27:06.134Z,2.40
2022-12-06T02:29:33.753Z,2.39
2022-12-06T02:32:02.625Z,2.40
2022-12-06T02:34:30.187Z,2.41
2022-12-06T02:36:57.740Z,2.42
2022-12-06T02:39:25.327Z,2.43
2022-12-06T02:41:53.374Z,2.43
2022-12-06T02:44:22.646Z,2.44
2022-12-06T02:46:50.585Z,2.44
2022-12-06T02:49:18.187Z,2.45
2022-12-06T02:51:45.723Z,2.46
2022-12-06T02:54:13.321Z,2.47
2022-12-06T02:56:40.881Z,2.47
2022-12-06T02:59:08.860Z,2.48
2022-12-06T03:01:36.582Z,2.49
2022-12-06T03:04:04.538Z,2.50
2022-12-06T03:06:32.350Z,2.50
2022-12-06T03:09:00.037Z,2.51
2022-12-06T03:11:31.307Z,2.51
2022-12-06T03:13:58.884Z,2.52
2022-12-06T03:16:26.495Z,2.54
2022-12-06T03:18:54.056Z,2.55
2022-12-06T03:21:22.577Z,2.56
2022-12-06T03:23:50.513Z,2.57
2022-12-06T03:26:18.384Z,2.59
2022-12-06T03:28:45.964Z,2.61
2022-12-06T03:31:13.742Z,2.61
2022-12-06T03:33:43.009Z,2.63
2022-12-06T03:36:11.021Z,2.64
2022-12-06T03:38:38.594Z,2.66
2022-12-06T03:41:06.126Z,2.68
2022-12-06T03:43:33.720Z,2.70
2022-12-06T03:46:02.362Z,2.73
2022-12-06T03:48:30.387Z,2.76
2022-12-06T03:50:58.843Z,2.78
2022-12-06T03:53:26.533Z,2.79
2022-12-06T03:55:54.121Z,2.81
2022-12-06T03:58:21.703Z,2.82
2022-12-06T04:00:49.646Z,2.82
2022-12-06T04:03:17.223Z,2.82
2022-12-06T04:05:44.882Z,2.82
2022-12-06T04:08:12.494Z,2.82
2022-12-06T04:10:40.534Z,2.83
2022-12-06T04:13:08.501Z,2.82
2022-12-06T04:15:36.342Z,2.82
2022-12-06T04:18:13.720Z,2.83
2022-12-06T04:20:59.328Z,2.84
2022-12-06T04:23:27.234Z,2.83
2022-12-06T04:25:54.760Z,2.81
2022-12-06T04:28:39.847Z,2.79
2022-12-06T04:31:24.925Z,2.79
2022-12-06T04:34:10.438Z,2.78
2022-12-06T04:36:55.328Z,2.77
2022-12-06T04:39:22.932Z,2.76
2022-12-06T04:42:08.156Z,2.74
2022-12-06T04:44:36.138Z,2.75
2022-12-06T04:47:03.795Z,2.74
2022-12-06T04:49:34.540Z,2.74
2022-12-06T04:52:02.162Z,2.75
2022-12-06T04:54:30.768Z,2.76
2022-12-06T04:56:58.762Z,2.77
2022-12-06T04:59:26.384Z,2.78
2022-12-06T05:01:53.935Z,2.77
2022-12-06T05:04:21.628Z,2.78
2022-12-06T05:06:49.321Z,2.78
2022-12-06T05:09:17.248Z,2.78
2022-12-06T05:11:45.246Z,2.79
2022-12-06T05:14:12.883Z,2.79
2022-12-06T05:16:40.455Z,2.80
2022-12-06T05:19:08.093Z,2.80
2022-12-06T05:21:36.030Z,2.81
2022-12-06T05:24:03.581Z,2.82
2022-12-06T05:26:31.276Z,2.83
2022-12-06T05:28:58.894Z,2.82
2022-12-06T05:31:26.570Z,2.84
2022-12-06T05:33:54.904Z,2.85
2022-12-06T05:36:22.528Z,2.86
2022-12-06T05:38:51.751Z,2.88
2022-12-06T05:41:19.540Z,2.90
2022-12-06T05:43:47.167Z,2.93
2022-12-06T05:46:15.205Z,2.93
2022-12-06T05:48:42.886Z,2.93
2022-12-06T05:51:11.333Z,2.95
2022-12-06T05:53:39.018Z,2.95
2022-12-06T05:56:07.299Z,2.96
2022-12-06T05:58:35.256Z,2.96
2022-12-06T06:01:02.881Z,2.96
2022-12-06T06:03:31.962Z,2.97
2022-12-06T06:05:59.652Z,2.98
2022-12-06T06:08:27.246Z,2.98
2022-12-06T06:10:55.231Z,2.99
2022-12-06T06:13:22.966Z,2.99
2022-12-06T06:15:50.544Z,3.01
2022-12-06T06:18:18.398Z,3.01
2022-12-06T06:20:46.050Z,3.02
2022-12-06T06:23:14.016Z,3.03
2022-12-06T06:25:41.742Z,3.05
2022-12-06T06:28:09.946Z,3.05
2022-12-06T06:30:37.555Z,3.06
2022-12-06T06:33:05.155Z,3.06
2022-12-06T06:35:34.891Z,3.06
2022-12-06T06:38:02.509Z,3.06
2022-12-06T06:40:30.141Z,3.07
2022-12-06T06:42:57.783Z,3.08
2022-12-06T06:45:28.997Z,3.08
2022-12-06T06:47:57.183Z,3.10
2022-12-06T06:50:25.363Z,3.11
2022-12-06T06:52:53.520Z,3.12
2022-12-06T06:55:21.142Z,3.14
2022-12-06T06:57:48.772Z,3.14
2022-12-06T07:00:17.263Z,3.15
2022-12-06T07:02:45.315Z,3.18
2022-12-06T07:05:13.166Z,3.18
2022-12-06T07:07:40.858Z,3.18
2022-12-06T07:10:08.529Z,3.20
2022-12-06T07:12:36.503Z,3.22
2022-12-06T07:15:04.165Z,3.24
2022-12-06T07:17:31.774Z,3.27
2022-12-06T07:19:59.819Z,3.27
2022-12-06T07:22:27.673Z,3.26
2022-12-06T07:24:56.004Z,3.26
2022-12-06T07:27:23.740Z,3.25
2022-12-06T07:29:53.103Z,3.23
2022-12-06T07:32:20.773Z,3.22
2022-12-06T07:34:48.418Z,3.21
2022-12-06T07:37:19.522Z,3.20
2022-12-06T07:39:47.134Z,3.21
2022-12-06T07:42:32.505Z,3.20
2022-12-06T07:45:07.484Z,3.21
2022-12-06T07:47:35.671Z,3.21
2022-12-06T07:50:03.437Z,3.24
2022-12-06T07:52:31.193Z,3.24
2022-12-06T07:54:58.970Z,3.24
2022-12-06T07:57:26.704Z,3.25
2022-12-06T07:59:55.769Z,3.27
2022-12-06T08:02:23.545Z,3.28
2022-12-06T08:04:51.419Z,3.30
2022-12-06T08:07:19.197Z,3.31
2022-12-06T08:09:48.122Z,3.32
2022-12-06T08:12:16.199Z,3.34
2022-12-06T08:14:43.857Z,3.35
2022-12-06T08:17:11.557Z,3.37
2022-12-06T08:19:39.257Z,3.38
2022-12-06T08:22:07.568Z,3.40
2022-12-06T08:24:35.607Z,3.41
2022-12-06T08:27:03.560Z,3.43
2022-12-06T08:29:31.278Z,3.45
2022-12-06T08:31:59.467Z,3.47
2022-12-06T08:34:28.658Z,3.51
2022-12-06T08:37:01.680Z,3.53
2022-12-06T08:39:31.209Z,3.58
2022-12-06T08:42:03.587Z,3.61
2022-12-06T08:44:32.511Z,3.63
2022-12-06T08:47:00.198Z,3.66
2022-12-06T08:49:27.939Z,3.68
2022-12-06T08:51:56.071Z,3.70
2022-12-06T08:54:24.038Z,3.72
2022-12-06T08:56:52.412Z,3.72
2022-12-06T08:59:20.736Z,3.73
2022-12-06T09:01:48.444Z,3.74
2022-12-06T09:04:16.282Z,3.74
2022-12-06T09:06:44.166Z,3.75
2022-12-06T09:09:11.899Z,3.75
2022-12-06T09:11:39.933Z,3.76
2022-12-06T09:14:09.430Z,3.77
2022-12-06T09:16:37.150Z,3.78
2022-12-06T09:19:04.783Z,3.81
2022-12-06T09:21:33.951Z,3.83
2022-12-06T09:24:02.081Z,3.85
2022-12-06T09:26:29.881Z,3.87
2022-12-06T09:28:57.875Z,3.89
2022-12-06T09:31:25.990Z,3.90
2022-12-06T09:33:55.572Z,3.90
2022-12-06T09:36:23.912Z,3.91
2022-12-06T09:38:51.736Z,3.92
2022-12-06T09:41:19.634Z,3.94
2022-12-06T09:43:47.570Z,3.97
2022-12-06T09:46:15.456Z,4.00
2022-12-06T09:48:48.827Z,4.03
2022-12-06T09:51:17.049Z,4.07
2022-12-06T09:53:45.051Z,4.09
2022-12-06T09:56:12.735Z,4.12
2022-12-06T09:58:42.251Z,4.14
2022-12-06T10:01:10.001Z,4.16
2022-12-06T10:03:37.682Z,4.19
2022-12-06T10:06:05.786Z,4.21
2022-12-06T10:08:33.773Z,4.23
2022-12-06T10:11:08.352Z,4.24
2022-12-06T10:13:37.071Z,4.25
2022-12-06T10:16:05.050Z,4.26
2022-12-06T10:18:32.854Z,4.28
2022-12-06T10:21:00.582Z,4.30
2022-12-06T10:23:29.649Z,4.32
2022-12-06T10:25:57.705Z,4.34
2022-12-06T10:28:25.481Z,4.35
2022-12-06T10:30:53.381Z,4.35
2022-12-06T10:33:21.169Z,4.37
2022-12-06T10:35:48.971Z,4.40
2022-12-06T10:38:17.047Z,4.44
2022-12-06T10:40:44.630Z,4.49
2022-12-06T10:43:12.515Z,4.52
2022-12-06T10:45:57.554Z,4.56
2022-12-06T10:48:25.458Z,4.57
2022-12-06T10:50:53.357Z,4.60
2022-12-06T10:53:21.021Z,4.63
2022-12-06T10:55:49.020Z,4.67
2022-12-06T10:58:17.067Z,4.70
2022-12-06T11:00:45.952Z,4.71
2022-12-06T11:03:13.917Z,4.73
2022-12-06T11:05:41.691Z,4.76
2022-12-06T11:08:09.512Z,4.76
2022-12-06T11:10:37.732Z,4.77
2022-12-06T11:13:07.109Z,4.78
2022-12-06T11:15:34.807Z,4.78
2022-12-06T11:18:02.937Z,4.79
2022-12-06T11:20:30.853Z,4.79
2022-12-06T11:23:06.233Z,4.79
2022-12-06T11:25:36.126Z,4.78
2022-12-06T11:28:04.402Z,4.78
2022-12-06T11:30:32.256Z,4.78
2022-12-06T11:33:00.126Z,4.76
2022-12-06T11:35:27.998Z,4.74
2022-12-06T11:37:57.432Z,4.74
2022-12-06T11:40:25.345Z,4.74
2022-12-06T11:42:53.218Z,4.74
2022-12-06T11:45:21.996Z,4.77
2022-12-06T11:47:49.917Z,4.81
2022-12-06T11:50:18.757Z,4.87
2022-12-06T11:52:46.833Z,4.91
2022-12-06T11:55:16.249Z,4.96
2022-12-06T11:57:44.079Z,4.97
2022-12-06T12:00:12.185Z,5.02
2022-12-06T12:02:41.879Z,5.06
2022-12-06T12:05:09.824Z,5.10
2022-12-06T12:07:38.043Z,5.12
2022-12-06T12:10:05.898Z,5.15
2022-12-06T12:12:54.033Z,5.18
2022-12-06T12:15:21.817Z,5.22
2022-12-06T12:17:49.566Z,5.26
2022-12-06T12:20:17.439Z,5.28
2022-12-06T12:22:45.570Z,5.32
2022-12-06T12:25:20.803Z,5.34
2022-12-06T12:27:50.810Z,5.35
2022-12-06T12:30:18.714Z,5.38
2022-12-06T12:32:46.607Z,5.40
2022-12-06T12:35:15.113Z,5.43
2022-12-06T12:37:43.094Z,5.44
2022-12-06T12:40:12.089Z,5.42
2022-12-06T12:42:40.456Z,5.40
2022-12-06T12:45:08.267Z,5.38
2022-12-06T12:47:37.340Z,5.33
2022-12-06T12:50:05.320Z,5.29
2022-12-06T12:52:33.201Z,5.27
2022-12-06T12:55:01.376Z,5.23
2022-12-06T12:57:29.584Z,5.19
2022-12-06T12:59:57.354Z,5.16
2022-12-06T13:02:27.197Z,5.12
2022-12-06T13:05:17.392Z,5.09
2022-12-06T13:07:46.627Z,5.08
2022-12-06T13:10:15.189Z,5.05
2022-12-06T13:12:42.969Z,5.03
2022-12-06T13:15:11.451Z,5.02
2022-12-06T13:17:39.495Z,5.03
2022-12-06T13:20:07.296Z,5.02
2022-12-06T13:22:35.672Z,5.02
2022-12-06T13:25:04.070Z,5.01
2022-12-06T13:27:33.789Z,4.99
2022-12-06T13:30:01.781Z,4.97
2022-12-06T13:32:30.215Z,4.95
2022-12-06T13:34:58.934Z,4.93
2022-12-06T13:37:27.092Z,4.93
2022-12-06T13:39:56.261Z,4.94
2022-12-06T13:42:24.191Z,4.95
2022-12-06T13:44:51.981Z,4.96
2022-12-06T13:47:20.178Z,4.95
2022-12-06T13:49:49.176Z,4.96
2022-12-06T13:52:17.196Z,4.95
2022-12-06T13:54:45.112Z,4.95
2022-12-06T13:57:12.944Z,4.93
2022-12-06T13:59:41.383Z,4.91
2022-12-06T14:02:09.414Z,4.90
2022-12-06T14:04:39.093Z,4.88
2022-12-06T14:09:34.026Z,4.87
2022-12-06T14:12:02.098Z,4.87
2022-12-06T14:14:30.018Z,4.87
2022-12-06T14:16:58.995Z,4.89
2022-12-06T14:19:26.965Z,4.90
2022-12-06T14:21:55.894Z,4.91
2022-12-06T14:24:23.831Z,4.93
2022-12-06T14:26:51.676Z,4.94
2022-12-06T14:29:20.318Z,4.95
2022-12-06T14:31:48.716Z,4.96
2022-12-06T14:34:16.959Z,4.95
2022-12-06T14:36:44.855Z,4.95
2022-12-06T14:39:12.889Z,4.94
2022-12-06T14:41:58.104Z,4.91
2022-12-06T14:44:27.823Z,4.92
2022-12-06T14:46:55.648Z,4.88
2022-12-06T14:49:40.709Z,4.85
2022-12-06T14:52:08.880Z,4.81
2022-12-06T14:54:39.263Z,4.78
2022-12-06T14:57:07.148Z,4.75
2022-12-06T15:02:22.953Z,4.68
2022-12-06T15:04:51.417Z,4.62
2022-12-06T15:07:19.283Z,4.55
2022-12-06T15:09:47.282Z,4.46
2022-12-06T15:12:32.595Z,4.41
2022-12-06T15:15:02.169Z,4.35
2022-12-06T15:17:30.066Z,4.31
2022-12-06T15:19:58.169Z,4.25
2022-12-06T15:22:27.010Z,4.20
2022-12-06T15:24:55.579Z,4.15
2022-12-06T15:27:25.936Z,4.11
2022-12-06T15:29:53.878Z,4.04
2022-12-06T15:32:21.731Z,4.01
2022-12-06T15:34:49.845Z,3.96
2022-12-06T15:40:06.372Z,3.88
2022-12-06T15:42:34.461Z,3.90
2022-12-06T15:45:02.938Z,3.94
2022-12-06T15:47:31.193Z,3.98
2022-12-06T15:49:59.245Z,4.01
2022-12-06T15:52:28.486Z,4.05
2022-12-06T15:54:56.691Z,4.09
2022-12-06T15:57:24.607Z,4.10
2022-12-06T15:59:52.426Z,4.12
2022-12-06T16:02:20.816Z,4.14
2022-12-06T16:04:52.642Z,4.15
2022-12-06T16:07:20.510Z,4.18
2022-12-06T16:09:48.345Z,4.21
2022-12-06T16:12:16.375Z,4.21
2022-12-06T16:14:44.271Z,4.23
2022-12-06T16:17:15.409Z,4.22
2022-12-06T16:20:00.967Z,4.22
2022-12-06T16:22:42.639Z,4.22
2022-12-06T16:25:10.945Z,4.22
2022-12-06T16:27:41.675Z,4.24
2022-12-06T16:30:09.618Z,4.23
2022-12-06T16:32:37.548Z,4.23
2022-12-06T16:35:05.530Z,4.23
2022-12-06T16:37:33.476Z,4.25
2022-12-06T16:40:03.352Z,4.25
2022-12-06T16:42:31.262Z,4.26
2022-12-06T16:44:59.215Z,4.25
2022-12-06T16:49:54.344Z,4.21
2022-12-06T16:52:23.103Z,4.21
2022-12-06T16:54:51.089Z,4.22
2022-12-06T16:57:19.758Z,4.20
2022-12-06T16:59:47.959Z,4.18
2022-12-06T17:02:16.322Z,4.17
2022-12-06T17:04:46.368Z,4.15
2022-12-06T17:07:14.241Z,4.13
2022-12-06T17:09:42.279Z,4.11
2022-12-06T17:12:13.403Z,4.09
2022-12-06T17:14:41.561Z,4.09
2022-12-06T17:17:09.589Z,4.07
2022-12-06T17:19:37.440Z,4.07
2022-12-06T17:22:07.540Z,4.09
2022-12-06T17:24:35.478Z,4.08
2022-12-06T17:27:03.364Z,4.07
2022-12-06T17:29:32.897Z,4.05
2022-12-06T17:32:00.922Z,4.05
2022-12-06T17:34:28.821Z,4.03
2022-12-06T17:36:57.772Z,4.02
2022-12-06T17:39:26.080Z,4.01
2022-12-06T17:42:11.348Z,4.03
2022-12-06T17:44:39.990Z,4.04
2022-12-06T17:47:07.890Z,4.05
2022-12-06T17:49:39.153Z,4.07
2022-12-06T17:52:07.209Z,4.07
2022-12-06T17:54:35.042Z,4.11
2022-12-06T17:57:02.908Z,4.14
2022-12-06T17:59:32.205Z,4.18
2022-12-06T18:02:17.956Z,4.20
2022-12-06T18:04:46.855Z,4.22
2022-12-06T18:07:14.641Z,4.23
2022-12-06T18:09:42.479Z,4.24
2022-12-06T18:12:10.485Z,4.26
2022-12-06T18:14:38.318Z,4.27
2022-12-06T18:17:06.287Z,4.28
2022-12-06T18:19:34.473Z,4.31
2022-12-06T18:22:02.337Z,4.32
2022-12-06T18:24:35.343Z,4.35
2022-12-06T18:27:03.849Z,4.37
2022-12-06T18:29:31.653Z,4.37
2022-12-06T18:31:59.488Z,4.35
2022-12-06T18:34:27.490Z,4.34
2022-12-06T18:36:55.708Z,4.34
2022-12-06T18:39:25.662Z,4.34
2022-12-06T18:41:54.063Z,4.36
2022-12-06T18:44:21.950Z,4.37
2022-12-06T18:46:50.027Z,4.37
2022-12-06T18:49:18.092Z,4.38
2022-12-06T18:51:45.869Z,4.38
2022-12-06T18:54:14.984Z,4.38
2022-12-06T18:56:44.845Z,4.39
2022-12-06T18:59:12.671Z,4.39
2022-12-06T19:01:41.086Z,4.41
2022-12-06T19:04:09.068Z,4.42
2022-12-06T19:06:36.936Z,4.45
2022-12-06T19:09:04.875Z,4.45
2022-12-06T19:11:32.812Z,4.47
2022-12-06T19:14:01.176Z,4.47
2022-12-06T19:16:29.071Z,4.45
2022-12-06T19:18:57.113Z,4.46
2022-12-06T19:21:25.669Z,4.46
2022-12-06T19:23:53.474Z,4.46
2022-12-06T19:26:21.586Z,4.48
2022-12-06T19:28:49.415Z,4.49
2022-12-06T19:31:17.675Z,4.52
2022-12-06T19:33:46.663Z,4.52
2022-12-06T19:36:14.492Z,4.54
2022-12-06T19:38:42.831Z,4.54
2022-12-06T19:41:10.790Z,4.54
2022-12-06T19:43:56.244Z,4.55
2022-12-06T19:46:26.291Z,4.54
2022-12-06T19:48:54.507Z,4.54
2022-12-06T19:51:22.714Z,4.56
2022-12-06T19:53:50.677Z,4.58
2022-12-06T19:56:20.391Z,4.59
2022-12-06T19:58:49.882Z,4.59
2022-12-06T20:01:18.680Z,4.60
2022-12-06T20:03:47.422Z,4.61
2022-12-06T20:06:18.027Z,4.62
2022-12-06T20:08:46.365Z,4.59
2022-12-06T20:11:36.865Z,4.56
2022-12-06T20:14:04.759Z,4.51
2022-12-06T20:16:32.599Z,4.47
2022-12-06T20:19:00.448Z,4.42
2022-12-06T20:21:29.181Z,4.40
2022-12-06T20:23:59.428Z,4.37
2022-12-06T20:26:27.230Z,4.37
2022-12-06T20:28:55.119Z,4.37
2022-12-06T20:31:23.271Z,4.38
2022-12-06T20:33:51.506Z,4.39
2022-12-06T20:36:20.078Z,4.40
2022-12-06T20:38:47.878Z,4.43
2022-12-06T20:41:15.816Z,4.46
2022-12-06T20:43:43.734Z,4.48
2022-12-06T20:46:15.263Z,4.48
2022-12-06T20:48:43.919Z,4.48
2022-12-06T20:51:11.849Z,4.49
2022-12-06T20:53:40.280Z,4.48
2022-12-06T20:56:08.419Z,4.48
2022-12-06T20:58:38.336Z,4.49
2022-12-06T21:01:08.407Z,4.49
2022-12-06T21:03:36.304Z,4.50
2022-12-06T21:06:04.372Z,4.51
2022-12-06T21:08:32.067Z,4.52
2022-12-06T21:11:22.274Z,4.53
2022-12-06T21:13:49.418Z,4.54
2022-12-06T21:16:17.883Z,4.55
2022-12-06T21:18:45.728Z,4.55
2022-12-06T21:21:15.559Z,4.56
2022-12-06T21:23:43.392Z,4.57
2022-12-06T21:26:11.575Z,4.58
2022-12-06T21:28:39.678Z,4.60
2022-12-06T21:31:07.808Z,4.61
2022-12-06T21:33:36.862Z,4.62
2022-12-06T21:36:04.854Z,4.65
2022-12-06T21:38:32.696Z,4.66
2022-12-06T21:41:01.840Z,4.69
2022-12-06T21:43:29.827Z,4.71
2022-12-06T21:45:58.428Z,4.74
2022-12-06T21:48:26.306Z,4.74
2022-12-06T21:50:54.746Z,4.76
2022-12-06T21:53:22.570Z,4.77
2022-12-06T21:55:50.433Z,4.80
2022-12-06T21:58:18.487Z,4.82
2022-12-06T22:00:46.564Z,4.84
2022-12-06T22:03:20.942Z,4.85
2022-12-06T22:05:50.706Z,4.86
2022-12-06T22:08:18.618Z,4.86
2022-12-06T22:10:46.496Z,4.86
2022-12-06T22:13:14.336Z,4.86
2022-12-06T22:15:42.543Z,4.85
2022-12-06T22:18:10.456Z,4.85
2022-12-06T22:20:38.473Z,4.86
2022-12-06T22:23:06.640Z,4.87
2022-12-06T22:25:34.395Z,4.90
2022-12-06T22:28:02.548Z,4.92
2022-12-06T22:30:30.320Z,4.95
2022-12-06T22:32:58.051Z,4.96
2022-12-06T22:35:26.106Z,4.97
2022-12-06T22:37:53.922Z,4.97
2022-12-06T22:40:22.027Z,4.96
2022-12-06T22:42:49.908Z,4.94
2022-12-06T22:45:20.791Z,4.93
2022-12-06T22:47:48.559Z,4.92
2022-12-06T22:50:16.380Z,4.92
2022-12-06T22:52:44.118Z,4.92
2022-12-06T22:55:11.785Z,4.93
2022-12-06T22:57:40.954Z,4.94
2022-12-06T23:00:08.738Z,4.97
2022-12-06T23:02:36.415Z,5.00
2022-12-06T23:05:04.640Z,5.01
2022-12-06T23:07:32.339Z,5.04
2022-12-06T23:10:01.236Z,5.04
2022-12-06T23:12:29.266Z,5.06
2022-12-06T23:14:57.004Z,5.07
2022-12-06T23:17:25.262Z,5.09
2022-12-06T23:19:53.027Z,5.11
2022-12-06T23:22:20.716Z,5.13
2022-12-06T23:24:48.369Z,5.16
2022-12-06T23:27:16.346Z,5.18
2022-12-06T23:29:44.389Z,5.20
2022-12-06T23:32:12.142Z,5.21
2022-12-06T23:34:41.324Z,5.23
2022-12-06T23:37:08.979Z,5.23
2022-12-06T23:39:36.571Z,5.26
2022-12-06T23:42:04.599Z,5.26
2022-12-06T23:44:32.200Z,5.27
2022-12-06T23:47:00.677Z,5.27
2022-12-06T23:49:28.354Z,5.28
2022-12-06T23:51:56.007Z,5.29
2022-12-06T23:54:23.897Z,5.30
2022-12-06T23:56:51.621Z,5.32
2022-12-06T23:59:19.843Z,5.32
